sensor_id;sensor_type;location;lat;lon;timestamp;pressure;altitude;pressure_sealevel;temperature;humidity
63351;BME280;64988;51.058;17.040;2023-02-10T00:00:53;101784.38;;;-0.32;60.64
63351;BME280;64988;51.058;17.040;2023-02-10T00:06:21;101781.81;;;-0.44;60.84
63351;BME280;64988;51.058;17.040;2023-02-10T00:11:51;101797.00;;;-0.60;61.02
63351;BME280;64988;51.058;17.040;2023-02-10T00:17:27;101808.72;;;-0.82;60.28
63351;BME280;64988;51.058;17.040;2023-02-10T00:22:55;101815.91;;;-1.02;60.89
63351;BME280;64988;51.058;17.040;2023-02-10T00:28:23;101811.66;;;-1.23;61.82
63351;BME280;64988;51.058;17.040;2023-02-10T00:33:51;101817.03;;;-1.38;62.31
63351;BME280;64988;51.058;17.040;2023-02-10T00:39:19;101814.50;;;-1.53;63.05
63351;BME280;64988;51.058;17.040;2023-02-10T00:44:46;101806.63;;;-1.69;62.83
63351;BME280;64988;51.058;17.040;2023-02-10T00:50:14;101811.09;;;-1.78;62.21
63351;BME280;64988;51.058;17.040;2023-02-10T00:55:41;101808.47;;;-1.87;63.54
63351;BME280;64988;51.058;17.040;2023-02-10T01:01:08;101807.63;;;-1.91;63.49
63351;BME280;64988;51.058;17.040;2023-02-10T01:06:36;101815.56;;;-1.91;63.95
63351;BME280;64988;51.058;17.040;2023-02-10T01:12:04;101812.88;;;-1.86;64.16
63351;BME280;64988;51.058;17.040;2023-02-10T01:17:32;101807.53;;;-1.77;63.25
63351;BME280;64988;51.058;17.040;2023-02-10T01:23:00;101802.25;;;-1.80;63.52
63351;BME280;64988;51.058;17.040;2023-02-10T01:28:27;101795.22;;;-1.87;63.25
63351;BME280;64988;51.058;17.040;2023-02-10T01:33:55;101785.56;;;-1.96;63.34
63351;BME280;64988;51.058;17.040;2023-02-10T01:39:22;101792.66;;;-1.98;63.43
63351;BME280;64988;51.058;17.040;2023-02-10T01:50:17;101773.25;;;-2.01;64.14
63351;BME280;64988;51.058;17.040;2023-02-10T01:55:50;101764.41;;;-1.91;64.24
63351;BME280;64988;51.058;17.040;2023-02-10T02:01:20;101775.81;;;-1.79;64.13
63351;BME280;64988;51.058;17.040;2023-02-10T02:06:47;101774.06;;;-1.81;64.27
63351;BME280;64988;51.058;17.040;2023-02-10T02:35:23;101783.81;;;-1.91;63.03
63351;BME280;64988;51.058;17.040;2023-02-10T02:40:53;101796.09;;;-1.84;63.27
63351;BME280;64988;51.058;17.040;2023-02-10T02:57:50;101786.22;;;-1.47;62.50
63351;BME280;64988;51.058;17.040;2023-02-10T03:03:19;101780.91;;;-1.44;62.25
63351;BME280;64988;51.058;17.040;2023-02-10T03:08:46;101781.75;;;-1.42;61.83
63351;BME280;64988;51.058;17.040;2023-02-10T03:14:14;101785.25;;;-1.38;61.72
63351;BME280;64988;51.058;17.040;2023-02-10T03:19:42;101787.06;;;-1.45;62.06
63351;BME280;64988;51.058;17.040;2023-02-10T03:25:09;101788.84;;;-1.44;62.00
63351;BME280;64988;51.058;17.040;2023-02-10T03:30:37;101802.94;;;-1.42;62.37
63351;BME280;64988;51.058;17.040;2023-02-10T03:36:05;101808.25;;;-1.45;62.45
63351;BME280;64988;51.058;17.040;2023-02-10T03:41:32;101810.91;;;-1.45;62.68
63351;BME280;64988;51.058;17.040;2023-02-10T03:47:00;101817.97;;;-1.44;62.62
63351;BME280;64988;51.058;17.040;2023-02-10T03:52:27;101811.84;;;-1.49;62.15
63351;BME280;64988;51.058;17.040;2023-02-10T03:57:55;101818.88;;;-1.49;62.41
63351;BME280;64988;51.058;17.040;2023-02-10T04:03:22;101822.44;;;-1.53;62.29
63351;BME280;64988;51.058;17.040;2023-02-10T04:08:50;101825.97;;;-1.56;62.09
63351;BME280;64988;51.058;17.040;2023-02-10T04:14:18;101825.13;;;-1.60;62.63
63351;BME280;64988;51.058;17.040;2023-02-10T04:19:45;101828.69;;;-1.67;62.33
63351;BME280;64988;51.058;17.040;2023-02-10T04:25:12;101831.31;;;-1.71;62.68
63351;BME280;64988;51.058;17.040;2023-02-10T04:30:40;101840.22;;;-1.81;63.57
63351;BME280;64988;51.058;17.040;2023-02-10T04:36:07;101834.94;;;-1.84;63.19
63351;BME280;64988;51.058;17.040;2023-02-10T04:41:34;101834.06;;;-1.88;63.56
63351;BME280;64988;51.058;17.040;2023-02-10T04:47:02;101827.88;;;-1.87;63.14
63351;BME280;64988;51.058;17.040;2023-02-10T04:52:28;101830.53;;;-1.88;63.11
63351;BME280;64988;51.058;17.040;2023-02-10T04:57:56;101836.75;;;-1.94;63.97
63351;BME280;64988;51.058;17.040;2023-02-10T05:03:24;101842.88;;;-1.90;63.42
63351;BME280;64988;51.058;17.040;2023-02-10T05:08:52;101836.72;;;-1.88;63.82
63351;BME280;64988;51.058;17.040;2023-02-10T05:14:20;101817.28;;;-1.78;63.04
63351;BME280;64988;51.058;17.040;2023-02-10T05:19:47;101837.47;;;-1.63;62.58
63351;BME280;64988;51.058;17.040;2023-02-10T05:25:14;101847.13;;;-1.50;61.79
63351;BME280;64988;51.058;17.040;2023-02-10T05:30:42;101862.00;;;-1.25;62.20
63351;BME280;64988;51.058;17.040;2023-02-10T05:36:10;101853.69;;;-0.72;60.79
63351;BME280;64988;51.058;17.040;2023-02-10T05:41:37;101842.56;;;-0.17;59.19
63351;BME280;64988;51.058;17.040;2023-02-10T05:47:04;101851.69;;;0.38;57.66
63351;BME280;64988;51.058;17.040;2023-02-10T05:52:32;101859.09;;;0.79;56.21
63351;BME280;64988;51.058;17.040;2023-02-10T05:58:00;101864.81;;;1.12;55.10
63351;BME280;64988;51.058;17.040;2023-02-10T06:03:30;101874.03;;;1.44;54.46
63351;BME280;64988;51.058;17.040;2023-02-10T06:08:58;101870.16;;;1.64;52.81
63351;BME280;64988;51.058;17.040;2023-02-10T06:14:25;101880.47;;;1.83;52.58
63351;BME280;64988;51.058;17.040;2023-02-10T06:19:53;101883.53;;;2.09;52.33
63351;BME280;64988;51.058;17.040;2023-02-10T06:25:20;101887.53;;;2.32;51.88
63351;BME280;64988;51.058;17.040;2023-02-10T06:30:48;101901.34;;;2.52;51.24
63351;BME280;64988;51.058;17.040;2023-02-10T06:36:15;101913.38;;;2.71;50.17
63351;BME280;64988;51.058;17.040;2023-02-10T06:41:42;101907.66;;;2.88;49.92
63351;BME280;64988;51.058;17.040;2023-02-10T06:47:09;101906.50;;;3.01;49.28
63351;BME280;64988;51.058;17.040;2023-02-10T06:52:36;101908.31;;;3.00;48.80
63351;BME280;64988;51.058;17.040;2023-02-10T06:58:05;101918.47;;;3.22;47.99
63351;BME280;64988;51.058;17.040;2023-02-10T07:03:32;101916.56;;;3.65;47.20
63351;BME280;64988;51.058;17.040;2023-02-10T07:09:00;101908.28;;;3.76;45.92
63351;BME280;64988;51.058;17.040;2023-02-10T07:14:30;101921.28;;;3.89;45.97
63351;BME280;64988;51.058;17.040;2023-02-10T07:19:57;101920.97;;;4.01;46.17
63351;BME280;64988;51.058;17.040;2023-02-10T07:25:24;101928.50;;;4.19;46.17
63351;BME280;64988;51.058;17.040;2023-02-10T07:30:53;101930.56;;;4.42;44.90
63351;BME280;64988;51.058;17.040;2023-02-10T07:36:49;101921.97;;;4.91;44.42
63351;BME280;64988;51.058;17.040;2023-02-10T07:42:21;101938.31;;;5.11;43.80
63351;BME280;64988;51.058;17.040;2023-02-10T07:48:24;101941.19;;;5.05;44.35
63351;BME280;64988;51.058;17.040;2023-02-10T07:53:52;101940.28;;;5.06;44.73
63351;BME280;64988;51.058;17.040;2023-02-10T07:59:20;101932.00;;;5.14;44.39
63351;BME280;64988;51.058;17.040;2023-02-10T08:04:47;101947.34;;;5.37;44.42
63351;BME280;64988;51.058;17.040;2023-02-10T08:10:15;101943.13;;;5.57;43.76
63351;BME280;64988;51.058;17.040;2023-02-10T08:15:42;101933.44;;;5.81;43.19
63351;BME280;64988;51.058;17.040;2023-02-10T08:21:09;101924.78;;;6.25;43.15
63351;BME280;64988;51.058;17.040;2023-02-10T08:26:37;101929.75;;;6.61;43.22
63351;BME280;64988;51.058;17.040;2023-02-10T08:32:04;101933.09;;;6.67;43.80
63351;BME280;64988;51.058;17.040;2023-02-10T08:37:32;101926.25;;;6.82;44.36
63351;BME280;64988;51.058;17.040;2023-02-10T08:43:01;101935.44;;;6.76;44.21
63351;BME280;64988;51.058;17.040;2023-02-10T08:48:28;101939.81;;;7.02;44.42
63351;BME280;64988;51.058;17.040;2023-02-10T08:53:59;101952.56;;;7.20;43.97
63351;BME280;64988;51.058;17.040;2023-02-10T08:59:27;101950.84;;;7.63;44.34
63351;BME280;64988;51.058;17.040;2023-02-10T09:04:55;101954.72;;;7.77;43.21
63351;BME280;64988;51.058;17.040;2023-02-10T09:10:41;101947.09;;;7.45;44.92
63351;BME280;64988;51.058;17.040;2023-02-10T09:16:10;101941.41;;;7.53;45.48
63351;BME280;64988;51.058;17.040;2023-02-10T09:21:37;101943.25;;;8.16;45.90
63351;BME280;64988;51.058;17.040;2023-02-10T09:27:15;101946.38;;;8.67;45.24
63351;BME280;64988;51.058;17.040;2023-02-10T09:32:42;101950.31;;;8.79;44.96
63351;BME280;64988;51.058;17.040;2023-02-10T09:38:12;101954.75;;;9.00;44.68
63351;BME280;64988;51.058;17.040;2023-02-10T09:55:16;101962.56;;;9.62;43.73
63351;BME280;64988;51.058;17.040;2023-02-10T10:00:54;101971.31;;;10.39;42.30
63351;BME280;64988;51.058;17.040;2023-02-10T10:06:31;101981.41;;;11.02;40.48
63351;BME280;64988;51.058;17.040;2023-02-10T10:12:00;101985.09;;;11.01;40.45
63351;BME280;64988;51.058;17.040;2023-02-10T10:17:51;101980.78;;;11.15;40.51
63351;BME280;64988;51.058;17.040;2023-02-10T10:24:42;101976.22;;;11.15;40.05
63351;BME280;64988;51.058;17.040;2023-02-10T10:35:03;101973.41;;;11.65;39.10
63351;BME280;64988;51.058;17.040;2023-02-10T10:40:34;101977.66;;;11.05;40.53
63351;BME280;64988;51.058;17.040;2023-02-10T10:46:11;101980.19;;;10.75;40.48
63351;BME280;64988;51.058;17.040;2023-02-10T10:51:40;101976.63;;;10.75;40.17
63351;BME280;64988;51.058;17.040;2023-02-10T10:57:10;101971.78;;;10.81;40.82
63351;BME280;64988;51.058;17.040;2023-02-10T11:03:03;101963.59;;;11.31;40.08
63351;BME280;64988;51.058;17.040;2023-02-10T11:08:37;101955.88;;;11.56;38.76
63351;BME280;64988;51.058;17.040;2023-02-10T11:14:23;101955.00;;;11.40;38.84
63351;BME280;64988;51.058;17.040;2023-02-10T11:20:00;101938.91;;;11.37;38.97
63351;BME280;64988;51.058;17.040;2023-02-10T11:25:35;101947.19;;;11.34;39.13
63351;BME280;64988;51.058;17.040;2023-02-10T11:36:50;101934.66;;;11.33;40.37
63351;BME280;64988;51.058;17.040;2023-02-10T11:42:33;101938.38;;;11.15;39.54
63351;BME280;64988;51.058;17.040;2023-02-10T11:48:21;101953.59;;;11.49;38.84
63351;BME280;64988;51.058;17.040;2023-02-10T11:53:49;101942.00;;;11.47;39.40
63351;BME280;64988;51.058;17.040;2023-02-10T11:59:31;101946.81;;;11.73;38.75
63351;BME280;64988;51.058;17.040;2023-02-10T12:16:42;101940.31;;;11.13;39.42
63351;BME280;64988;51.058;17.040;2023-02-10T12:34:36;101945.47;;;11.18;39.67
63351;BME280;64988;51.058;17.040;2023-02-10T12:46:37;101952.28;;;10.92;41.78
63351;BME280;64988;51.058;17.040;2023-02-10T12:52:19;101949.34;;;10.79;41.12
63351;BME280;64988;51.058;17.040;2023-02-10T12:57:59;101956.06;;;10.21;42.66
63351;BME280;64988;51.058;17.040;2023-02-10T13:03:32;101949.56;;;10.06;43.28
63351;BME280;64988;51.058;17.040;2023-02-10T13:14:42;101944.72;;;9.95;44.26
63351;BME280;64988;51.058;17.040;2023-02-10T13:20:40;101938.22;;;9.99;43.61
63351;BME280;64988;51.058;17.040;2023-02-10T13:26:15;101934.56;;;10.36;44.13
63351;BME280;64988;51.058;17.040;2023-02-10T13:37:44;101943.75;;;10.32;44.10
63351;BME280;64988;51.058;17.040;2023-02-10T13:43:30;101948.38;;;10.12;43.84
63351;BME280;64988;51.058;17.040;2023-02-10T13:48:59;101944.72;;;10.14;43.97
63351;BME280;64988;51.058;17.040;2023-02-10T13:54:31;101941.28;;;9.92;44.88
63351;BME280;64988;51.058;17.040;2023-02-10T14:00:11;101957.09;;;9.64;45.86
63351;BME280;64988;51.058;17.040;2023-02-10T14:06:00;101957.97;;;9.45;45.91
63351;BME280;64988;51.058;17.040;2023-02-10T14:11:43;101961.56;;;9.46;46.09
63351;BME280;64988;51.058;17.040;2023-02-10T14:22:42;101972.53;;;9.04;46.78
63351;BME280;64988;51.058;17.040;2023-02-10T14:28:22;101958.00;;;8.88;46.96
63351;BME280;64988;51.058;17.040;2023-02-10T14:34:00;101969.19;;;8.59;47.68
63351;BME280;64988;51.058;17.040;2023-02-10T14:39:30;101969.47;;;8.32;47.71
63351;BME280;64988;51.058;17.040;2023-02-10T14:44:59;101966.91;;;8.50;47.46
63351;BME280;64988;51.058;17.040;2023-02-10T14:50:30;101967.69;;;8.31;48.00
63351;BME280;64988;51.058;17.040;2023-02-10T14:55:59;101972.84;;;7.94;48.95
63351;BME280;64988;51.058;17.040;2023-02-10T15:01:33;101982.72;;;7.93;48.82
63351;BME280;64988;51.058;17.040;2023-02-10T15:07:02;101980.59;;;7.80;49.26
63351;BME280;64988;51.058;17.040;2023-02-10T15:12:30;101979.94;;;7.75;49.26
63351;BME280;64988;51.058;17.040;2023-02-10T15:18:20;101976.91;;;7.61;50.33
63351;BME280;64988;51.058;17.040;2023-02-10T15:23:48;101976.84;;;7.62;50.21
63351;BME280;64988;51.058;17.040;2023-02-10T15:29:17;101983.25;;;7.36;51.28
63351;BME280;64988;51.058;17.040;2023-02-10T15:34:44;101968.22;;;7.08;51.49
63351;BME280;64988;51.058;17.040;2023-02-10T15:45:48;101974.44;;;6.85;51.86
63351;BME280;64988;51.058;17.040;2023-02-10T15:51:22;101972.53;;;6.65;52.38
63351;BME280;64988;51.058;17.040;2023-02-10T15:56:58;101979.28;;;6.51;52.72
63351;BME280;64988;51.058;17.040;2023-02-10T16:02:26;101964.00;;;6.28;53.29
63351;BME280;64988;51.058;17.040;2023-02-10T16:08:02;101979.63;;;6.15;53.92
63351;BME280;64988;51.058;17.040;2023-02-10T16:13:31;101984.78;;;5.95;54.05
63351;BME280;64988;51.058;17.040;2023-02-10T16:18:59;101982.38;;;5.88;53.83
63351;BME280;64988;51.058;17.040;2023-02-10T16:24:28;101988.28;;;5.69;54.22
63351;BME280;64988;51.058;17.040;2023-02-10T16:29:56;101999.63;;;5.77;53.61
63351;BME280;64988;51.058;17.040;2023-02-10T16:35:25;101995.53;;;5.66;54.48
63351;BME280;64988;51.058;17.040;2023-02-10T16:40:54;101996.31;;;5.69;54.35
63351;BME280;64988;51.058;17.040;2023-02-10T16:46:21;101993.59;;;5.71;53.68
63351;BME280;64988;51.058;17.040;2023-02-10T16:51:49;101992.72;;;5.70;54.35
63351;BME280;64988;51.058;17.040;2023-02-10T16:57:18;101996.09;;;5.75;53.98
63351;BME280;64988;51.058;17.040;2023-02-10T17:02:45;102000.50;;;5.78;54.02
63351;BME280;64988;51.058;17.040;2023-02-10T17:08:13;101996.88;;;5.79;54.24
63351;BME280;64988;51.058;17.040;2023-02-10T17:13:41;101999.06;;;5.68;54.41
63351;BME280;64988;51.058;17.040;2023-02-10T17:19:11;102006.88;;;5.74;54.26
63351;BME280;64988;51.058;17.040;2023-02-10T17:24:38;101995.59;;;5.64;54.79
63351;BME280;64988;51.058;17.040;2023-02-10T17:30:06;102004.41;;;5.68;54.84
63351;BME280;64988;51.058;17.040;2023-02-10T17:35:34;102008.72;;;5.72;54.79
63351;BME280;64988;51.058;17.040;2023-02-10T17:41:07;102014.81;;;5.77;54.70
63351;BME280;64988;51.058;17.040;2023-02-10T17:46:43;102008.69;;;5.73;54.92
63351;BME280;64988;51.058;17.040;2023-02-10T17:52:14;102012.44;;;5.68;55.01
63351;BME280;64988;51.058;17.040;2023-02-10T17:57:42;102013.13;;;5.74;54.63
63351;BME280;64988;51.058;17.040;2023-02-10T18:03:11;102020.13;;;5.78;54.83
63351;BME280;64988;51.058;17.040;2023-02-10T18:08:47;102016.84;;;5.69;54.82
63351;BME280;64988;51.058;17.040;2023-02-10T18:14:15;102022.50;;;5.60;54.85
63351;BME280;64988;51.058;17.040;2023-02-10T18:19:43;102023.91;;;5.44;53.88
63351;BME280;64988;51.058;17.040;2023-02-10T18:25:12;102021.69;;;5.28;53.28
63351;BME280;64988;51.058;17.040;2023-02-10T18:30:43;102025.53;;;5.20;53.33
63351;BME280;64988;51.058;17.040;2023-02-10T18:36:16;102026.66;;;5.11;53.57
63351;BME280;64988;51.058;17.040;2023-02-10T18:41:43;102020.50;;;5.08;53.36
63351;BME280;64988;51.058;17.040;2023-02-10T18:47:10;102020.56;;;5.06;53.62
63351;BME280;64988;51.058;17.040;2023-02-10T18:52:38;102020.66;;;5.03;53.56
63351;BME280;64988;51.058;17.040;2023-02-10T18:58:14;102026.22;;;4.96;53.91
63351;BME280;64988;51.058;17.040;2023-02-10T19:03:42;102026.56;;;5.14;54.57
63351;BME280;64988;51.058;17.040;2023-02-10T19:09:11;102035.66;;;5.09;53.94
63351;BME280;64988;51.058;17.040;2023-02-10T19:14:40;102030.28;;;5.09;53.84
63351;BME280;64988;51.058;17.040;2023-02-10T19:20:08;102016.22;;;5.02;53.92
63351;BME280;64988;51.058;17.040;2023-02-10T19:25:37;102005.63;;;4.98;53.80
63351;BME280;64988;51.058;17.040;2023-02-10T19:31:08;101995.97;;;4.92;54.20
63351;BME280;64988;51.058;17.040;2023-02-10T19:36:37;101990.88;;;4.85;55.33
63351;BME280;64988;51.058;17.040;2023-02-10T19:42:05;101983.50;;;4.60;57.17
63351;BME280;64988;51.058;17.040;2023-02-10T19:47:33;101986.38;;;4.53;57.58
63351;BME280;64988;51.058;17.040;2023-02-10T19:53:03;101977.78;;;4.42;57.12
63351;BME280;64988;51.058;17.040;2023-02-10T19:58:32;101975.38;;;4.33;57.23
63351;BME280;64988;51.058;17.040;2023-02-10T20:04:03;101974.75;;;4.23;57.64
63351;BME280;64988;51.058;17.040;2023-02-10T20:09:36;101969.81;;;4.06;59.10
63351;BME280;64988;51.058;17.040;2023-02-10T20:15:04;101963.84;;;3.95;59.35
63351;BME280;64988;51.058;17.040;2023-02-10T20:20:32;101962.94;;;3.96;59.65
63351;BME280;64988;51.058;17.040;2023-02-10T20:26:01;101963.84;;;3.95;59.82
63351;BME280;64988;51.058;17.040;2023-02-10T20:31:28;101960.34;;;3.93;59.97
63351;BME280;64988;51.058;17.040;2023-02-10T20:36:56;101938.34;;;3.84;60.94
63351;BME280;64988;51.058;17.040;2023-02-10T20:42:25;101932.44;;;3.71;60.96
63351;BME280;64988;51.058;17.040;2023-02-10T20:47:52;101916.75;;;3.56;61.43
63351;BME280;64988;51.058;17.040;2023-02-10T20:53:19;101918.69;;;3.51;61.60
63351;BME280;64988;51.058;17.040;2023-02-10T20:58:47;101922.88;;;3.61;61.51
63351;BME280;64988;51.058;17.040;2023-02-10T21:04:16;101931.25;;;3.46;62.42
63351;BME280;64988;51.058;17.040;2023-02-10T21:09:44;101907.44;;;3.38;62.38
63351;BME280;64988;51.058;17.040;2023-02-10T21:15:13;101883.34;;;3.03;62.77
63351;BME280;64988;51.058;17.040;2023-02-10T21:20:41;101873.41;;;2.71;64.05
63351;BME280;64988;51.058;17.040;2023-02-10T21:26:09;101874.78;;;2.47;64.53
63351;BME280;64988;51.058;17.040;2023-02-10T21:31:38;101881.56;;;2.19;65.79
63351;BME280;64988;51.058;17.040;2023-02-10T21:37:06;101882.53;;;2.13;65.01
63351;BME280;64988;51.058;17.040;2023-02-10T21:42:35;101875.81;;;1.94;65.88
63351;BME280;64988;51.058;17.040;2023-02-10T21:48:05;101878.81;;;1.75;66.22
63351;BME280;64988;51.058;17.040;2023-02-10T21:53:32;101874.59;;;1.63;67.73
63351;BME280;64988;51.058;17.040;2023-02-10T21:59:00;101859.69;;;1.53;67.75
63351;BME280;64988;51.058;17.040;2023-02-10T22:04:28;101864.28;;;1.43;68.16
63351;BME280;64988;51.058;17.040;2023-02-10T22:09:55;101868.16;;;1.26;69.02
63351;BME280;64988;51.058;17.040;2023-02-10T22:27:10;101854.38;;;0.98;70.18
63351;BME280;64988;51.058;17.040;2023-02-10T22:32:38;101858.06;;;0.88;70.32
63351;BME280;64988;51.058;17.040;2023-02-10T22:38:06;101855.50;;;0.82;70.66
63351;BME280;64988;51.058;17.040;2023-02-10T22:43:35;101850.22;;;0.80;70.58
63351;BME280;64988;51.058;17.040;2023-02-10T22:49:03;101844.88;;;0.82;70.84
63351;BME280;64988;51.058;17.040;2023-02-10T22:54:30;101841.38;;;0.80;70.68
63351;BME280;64988;51.058;17.040;2023-02-10T22:59:58;101837.81;;;0.79;70.26
63351;BME280;64988;51.058;17.040;2023-02-10T23:05:28;101838.75;;;0.75;70.12
63351;BME280;64988;51.058;17.040;2023-02-10T23:10:55;101829.94;;;0.73;70.72
63351;BME280;64988;51.058;17.040;2023-02-10T23:16:23;101812.19;;;0.75;70.32
63351;BME280;64988;51.058;17.040;2023-02-10T23:21:51;101807.75;;;0.77;70.26
63351;BME280;64988;51.058;17.040;2023-02-10T23:27:19;101805.72;;;0.93;70.25
63351;BME280;64988;51.058;17.040;2023-02-10T23:32:47;101791.09;;;1.20;70.27
63351;BME280;64988;51.058;17.040;2023-02-10T23:38:16;101771.13;;;1.46;69.52
63351;BME280;64988;51.058;17.040;2023-02-10T23:43:45;101773.25;;;1.75;68.74
63351;BME280;64988;51.058;17.040;2023-02-10T23:49:13;101756.81;;;1.98;68.13
63351;BME280;64988;51.058;17.040;2023-02-10T23:54:41;101747.59;;;2.16;67.60
